Time;durP1;ratioP1;P1;durP2;ratioP2;P2;SDS_P1;SDS_P2;PMS_P1;PMS_P2;Temp;Humidity;BMP_temperature;BMP_pressure;BME280_temperature;BME280_humidity;BME280_pressure;Samples;Min_cycle;Max_cycle;Signal;HPM_P1;HPM_P2
2023/04/10 00:00:28;;;;;;;5.83;4.67;;;9.70;99.90;;;;;;5080181;28;20237;-69
2023/04/10 00:02:53;;;;;;;5.73;4.63;;;9.70;99.90;;;;;;5080187;28;20204;-68
2023/04/10 00:05:21;;;;;;;5.97;4.60;;;9.70;99.90;;;;;;5080371;28;20178;-69
2023/04/10 00:07:47;;;;;;;6.50;4.77;;;9.60;99.90;;;;;;5079780;28;20192;-70
2023/04/10 00:10:12;;;;;;;6.43;5.00;;;9.60;99.90;;;;;;5080221;28;20258;-69
2023/04/10 00:12:40;;;;;;;6.10;4.57;;;9.60;99.90;;;;;;5080134;28;20393;-69
2023/04/10 00:15:07;;;;;;;5.90;4.83;;;9.60;99.90;;;;;;5080182;28;20172;-69
2023/04/10 00:17:32;;;;;;;5.23;4.47;;;9.60;99.90;;;;;;5080093;28;20168;-67
2023/04/10 00:20:01;;;;;;;4.77;4.27;;;9.50;99.90;;;;;;5079469;28;20267;-69
2023/04/10 00:22:26;;;;;;;6.13;5.23;;;9.50;99.90;;;;;;5079847;28;20175;-69
2023/04/10 00:24:52;;;;;;;5.57;4.43;;;9.50;99.90;;;;;;5079784;28;20194;-68
2023/04/10 00:27:18;;;;;;;5.30;4.60;;;9.50;99.90;;;;;;5096470;28;20176;-69
2023/04/10 00:29:44;;;;;;;7.03;4.30;;;9.50;99.90;;;;;;5087926;28;20180;-69
2023/04/10 00:32:09;;;;;;;5.70;4.97;;;9.40;99.90;;;;;;5079555;28;20195;-68
2023/04/10 00:34:35;;;;;;;6.07;4.60;;;9.50;99.90;;;;;;5113653;28;20196;-69
2023/04/10 00:37:00;;;;;;;5.47;4.60;;;9.60;99.90;;;;;;5079781;28;20271;-70
2023/04/10 00:39:26;;;;;;;6.00;4.93;;;9.40;99.90;;;;;;5079606;28;20252;-69
2023/04/10 00:41:54;;;;;;;6.63;4.60;;;9.40;99.90;;;;;;5079566;28;20179;-69
2023/04/10 00:44:20;;;;;;;5.07;4.57;;;9.40;99.90;;;;;;5079400;28;20254;-69
2023/04/10 00:46:45;;;;;;;5.13;4.60;;;9.50;99.90;;;;;;5079598;28;20423;-69
2023/04/10 00:49:14;;;;;;;6.20;4.70;;;9.30;99.90;;;;;;5079164;28;20246;-70
2023/04/10 00:51:43;;;;;;;5.80;4.90;;;9.40;99.90;;;;;;5080377;28;20204;-69
2023/04/10 00:54:10;;;;;;;6.20;4.93;;;9.30;99.90;;;;;;5079979;28;20172;-65
2023/04/10 00:56:39;;;;;;;5.67;4.67;;;9.30;99.90;;;;;;5079731;28;20249;-69
2023/04/10 00:59:04;;;;;;;5.47;4.73;;;9.20;99.90;;;;;;5079208;28;20175;-70
2023/04/10 01:01:32;;;;;;;5.93;4.87;;;9.30;99.90;;;;;;5079705;28;20172;-69
2023/04/10 01:03:58;;;;;;;5.60;4.60;;;9.20;99.90;;;;;;5079513;28;20176;-70
2023/04/10 01:06:56;;;;;;;6.17;4.77;;;9.30;99.90;;;;;;5079686;28;20202;-69
2023/04/10 01:09:43;;;;;;;5.50;4.60;;;9.20;99.90;;;;;;5079278;28;20179;-71
2023/04/10 01:12:33;;;;;;;7.10;5.17;;;9.20;99.90;;;;;;5079238;28;20207;-70
2023/04/10 01:15:13;;;;;;;5.00;4.40;;;9.20;99.90;;;;;;5079064;28;20171;-71
2023/04/10 01:17:56;;;;;;;5.47;4.67;;;9.10;99.90;;;;;;5079198;28;20168;-70
2023/04/10 01:20:25;;;;;;;5.57;4.63;;;9.10;99.90;;;;;;5079043;28;20222;-70
2023/04/10 01:23:03;;;;;;;6.63;4.83;;;9.20;99.90;;;;;;5079041;28;20203;-69
2023/04/10 01:25:49;;;;;;;5.00;4.40;;;9.10;99.90;;;;;;5078729;28;20195;-69
2023/04/10 01:28:18;;;;;;;4.70;4.07;;;9.10;99.90;;;;;;5079349;28;20172;-70
2023/04/10 01:30:46;;;;;;;5.93;4.83;;;9.10;99.90;;;;;;5078759;28;20179;-70
2023/04/10 01:33:16;;;;;;;5.33;4.43;;;9.10;99.90;;;;;;5078636;28;20168;-70
2023/04/10 01:35:45;;;;;;;5.07;4.47;;;9.10;99.90;;;;;;5078853;28;20172;-70
2023/04/10 01:38:12;;;;;;;6.27;4.87;;;9.10;99.90;;;;;;5078698;28;20168;-70
2023/04/10 01:40:41;;;;;;;6.60;4.50;;;9.00;99.90;;;;;;5078831;28;20167;-70
2023/04/10 01:43:10;;;;;;;5.67;4.77;;;9.00;99.90;;;;;;5077993;28;20281;-70
2023/04/10 01:45:37;;;;;;;6.17;5.40;;;9.00;99.90;;;;;;5078779;28;20172;-67
2023/04/10 01:48:03;;;;;;;6.57;5.53;;;9.10;99.90;;;;;;5078683;28;20192;-69
2023/04/10 01:50:30;;;;;;;6.93;5.63;;;9.00;99.90;;;;;;5078722;28;20168;-70
2023/04/10 01:53:00;;;;;;;7.63;6.20;;;8.90;99.90;;;;;;5078575;28;20290;-69
2023/04/10 01:55:28;;;;;;;8.83;6.37;;;8.90;99.90;;;;;;5078558;28;20249;-69
2023/04/10 01:57:54;;;;;;;8.33;6.37;;;8.80;99.90;;;;;;5078314;28;20191;-70
2023/04/10 02:00:22;;;;;;;7.60;6.47;;;8.80;99.90;;;;;;5079072;28;20177;-69
2023/04/10 02:02:49;;;;;;;7.87;6.23;;;8.80;99.90;;;;;;5078278;28;20207;-70
2023/04/10 02:05:18;;;;;;;6.03;5.40;;;8.70;99.90;;;;;;5078569;28;20183;-69
2023/04/10 02:08:11;;;;;;;7.40;5.90;;;8.80;99.90;;;;;;5078189;28;20198;-71
2023/04/10 02:10:43;;;;;;;6.90;5.93;;;8.70;99.90;;;;;;5078436;28;20160;-69
2023/04/10 02:13:20;;;;;;;6.37;5.17;;;8.70;99.90;;;;;;5112163;28;20200;-68
2023/04/10 02:15:49;;;;;;;6.97;5.67;;;8.70;99.90;;;;;;5078794;28;20202;-69
2023/04/10 02:18:19;;;;;;;6.40;5.20;;;8.70;99.90;;;;;;5085459;28;20198;-68
2023/04/10 02:20:51;;;;;;;6.67;5.77;;;8.80;99.90;;;;;;5095439;28;20180;-69
2023/04/10 02:23:21;;;;;;;6.70;5.83;;;8.80;99.90;;;;;;5057995;28;20200;-69
2023/04/10 02:25:49;;;;;;;8.10;5.90;;;8.70;99.90;;;;;;5058111;28;20192;-69
2023/04/10 02:28:17;;;;;;;6.83;5.63;;;8.80;99.90;;;;;;5058065;28;20173;-68
2023/04/10 02:30:45;;;;;;;7.73;6.53;;;8.70;99.90;;;;;;5058168;28;20183;-69
2023/04/10 02:33:10;;;;;;;8.73;6.20;;;8.80;99.90;;;;;;5057803;28;20177;-69
2023/04/10 02:35:36;;;;;;;7.83;5.93;;;8.80;99.90;;;;;;5058506;28;20172;-69
2023/04/10 02:38:02;;;;;;;5.87;5.27;;;8.80;99.90;;;;;;5057656;28;20173;-68
2023/04/10 02:40:27;;;;;;;7.10;5.73;;;8.80;99.90;;;;;;5073868;28;20206;-68
2023/04/10 02:42:55;;;;;;;6.97;5.90;;;8.80;99.90;;;;;;5097969;28;20183;-66
2023/04/10 02:45:23;;;;;;;6.40;5.57;;;8.80;99.90;;;;;;5096499;28;20207;-69
2023/04/10 02:47:48;;;;;;;7.07;5.60;;;8.80;99.90;;;;;;5078091;28;20180;-68
2023/04/10 02:50:16;;;;;;;5.87;5.07;;;8.80;99.90;;;;;;5078059;28;20252;-69
2023/04/10 02:52:41;;;;;;;6.33;4.90;;;8.80;99.90;;;;;;5078095;28;20195;-69
2023/04/10 02:55:10;;;;;;;5.70;4.90;;;8.80;99.90;;;;;;5080799;28;20198;-70
2023/04/10 02:57:36;;;;;;;6.23;4.50;;;8.80;99.90;;;;;;5081914;28;20218;-71
2023/04/10 03:00:05;;;;;;;5.40;4.50;;;8.80;99.90;;;;;;5081884;28;20199;-70
2023/04/10 03:02:33;;;;;;;5.93;4.50;;;8.70;99.90;;;;;;5082246;28;20172;-68
2023/04/10 03:05:01;;;;;;;6.50;4.70;;;8.80;99.90;;;;;;5081763;28;20233;-69
2023/04/10 03:07:27;;;;;;;6.97;5.30;;;8.80;99.90;;;;;;5115702;28;20201;-68
2023/04/10 03:09:57;;;;;;;6.13;4.73;;;8.70;99.90;;;;;;5081810;28;20176;-69
2023/04/10 03:12:23;;;;;;;5.60;4.70;;;8.70;99.90;;;;;;5081475;28;20199;-69
2023/04/10 03:14:51;;;;;;;5.93;4.60;;;8.70;99.90;;;;;;5091474;28;20175;-68
2023/04/10 03:17:17;;;;;;;5.67;4.60;;;8.60;99.90;;;;;;5098470;28;20204;-68
2023/04/10 03:19:45;;;;;;;5.50;4.63;;;8.60;99.90;;;;;;5081678;28;20176;-66
2023/04/10 03:22:10;;;;;;;6.23;4.93;;;8.60;99.90;;;;;;5077729;28;20275;-69
2023/04/10 03:24:39;;;;;;;5.83;4.87;;;8.60;99.90;;;;;;5061524;28;20207;-62
2023/04/10 03:27:05;;;;;;;6.10;4.70;;;8.50;99.90;;;;;;5061329;28;20291;-71
2023/04/10 03:29:31;;;;;;;5.63;4.97;;;8.50;99.90;;;;;;5061458;28;20217;-69
2023/04/10 03:31:59;;;;;;;5.97;5.10;;;8.40;99.90;;;;;;5094945;28;20220;-69
2023/04/10 03:34:27;;;;;;;6.70;5.50;;;8.30;99.90;;;;;;5061190;28;20202;-69
2023/04/10 03:36:55;;;;;;;8.83;5.60;;;8.30;99.90;;;;;;5060774;28;20196;-68
2023/04/10 03:39:20;;;;;;;7.13;5.70;;;8.30;99.90;;;;;;5061140;28;20254;-69
2023/04/10 03:41:46;;;;;;;7.53;5.73;;;8.30;99.90;;;;;;5061253;28;20200;-68
2023/04/10 03:44:11;;;;;;;7.13;5.53;;;8.20;99.90;;;;;;5061171;28;20179;-68
2023/04/10 03:46:37;;;;;;;7.47;6.30;;;8.20;99.90;;;;;;5060808;28;20173;-69
2023/04/10 03:49:03;;;;;;;8.03;5.60;;;8.20;99.90;;;;;;5078966;28;20263;-69
2023/04/10 03:51:31;;;;;;;7.13;6.07;;;8.20;99.90;;;;;;5081033;28;20200;-68
2023/04/10 03:53:56;;;;;;;8.87;6.27;;;8.10;99.90;;;;;;5080979;28;20168;-69
2023/04/10 03:56:22;;;;;;;8.10;6.27;;;8.00;99.90;;;;;;5080471;28;20182;-68
2023/04/10 03:58:48;;;;;;;8.20;6.23;;;8.10;99.90;;;;;;5114993;28;20199;-69
2023/04/10 04:01:13;;;;;;;7.47;5.50;;;8.00;99.90;;;;;;5114819;28;20187;-70
2023/04/10 04:03:39;;;;;;;7.80;6.63;;;8.00;99.90;;;;;;5114441;28;20283;-68
2023/04/10 04:06:07;;;;;;;7.50;6.40;;;7.90;99.90;;;;;;5114026;28;20171;-68
2023/04/10 04:08:35;;;;;;;7.60;5.77;;;7.90;99.90;;;;;;5114510;28;20199;-68
2023/04/10 04:11:00;;;;;;;6.63;5.20;;;7.90;99.90;;;;;;5114109;28;20223;-68
2023/04/10 04:13:28;;;;;;;6.90;5.20;;;7.90;99.90;;;;;;5114101;28;20234;-68
2023/04/10 04:15:56;;;;;;;8.40;6.00;;;7.90;99.90;;;;;;5114279;28;20172;-69
2023/04/10 04:18:21;;;;;;;7.10;5.70;;;7.90;99.90;;;;;;5114341;28;20191;-68
2023/04/10 04:20:50;;;;;;;7.20;5.80;;;7.80;99.90;;;;;;5114666;28;20180;-68
2023/04/10 04:23:18;;;;;;;7.80;6.07;;;7.80;99.90;;;;;;5113947;28;20179;-69
2023/04/10 04:25:46;;;;;;;7.13;5.57;;;7.80;99.90;;;;;;5113755;28;20203;-68
2023/04/10 04:28:14;;;;;;;6.77;5.40;;;7.80;99.90;;;;;;5080013;28;20168;-69
2023/04/10 04:30:40;;;;;;;5.80;4.77;;;7.80;99.90;;;;;;5079828;28;20180;-68
2023/04/10 04:33:08;;;;;;;6.90;5.50;;;7.70;99.90;;;;;;5080548;28;20182;-66
2023/04/10 04:35:34;;;;;;;7.33;5.77;;;7.80;99.90;;;;;;5079869;28;20168;-65
2023/04/10 04:37:59;;;;;;;7.30;5.80;;;7.70;99.90;;;;;;5079910;28;20198;-65
2023/04/10 04:40:25;;;;;;;6.73;5.53;;;7.70;99.90;;;;;;5079792;28;20279;-66
2023/04/10 04:42:50;;;;;;;6.20;5.10;;;7.60;99.90;;;;;;5079521;28;20176;-66
2023/04/10 04:45:20;;;;;;;6.30;4.60;;;7.70;99.90;;;;;;5079563;28;20257;-65
2023/04/10 04:47:46;;;;;;;6.57;5.17;;;7.60;99.90;;;;;;5079493;28;20258;-65
2023/04/10 04:50:14;;;;;;;5.83;4.73;;;7.60;99.90;;;;;;5079387;28;20223;-66
2023/04/10 04:52:40;;;;;;;7.10;4.90;;;7.60;99.90;;;;;;5079267;28;20208;-66
2023/04/10 04:55:06;;;;;;;6.27;4.77;;;7.60;99.90;;;;;;5079257;28;20225;-65
2023/04/10 04:57:32;;;;;;;5.30;4.67;;;7.60;99.90;;;;;;5079455;28;20164;-66
2023/04/10 04:59:57;;;;;;;5.73;4.87;;;7.60;99.90;;;;;;5078972;28;20290;-65
2023/04/10 05:02:25;;;;;;;6.53;5.00;;;7.60;99.90;;;;;;5079397;28;20263;-65
2023/04/10 05:04:51;;;;;;;5.70;4.53;;;7.60;99.90;;;;;;5079102;28;20202;-65
2023/04/10 05:07:16;;;;;;;5.93;4.97;;;7.60;99.90;;;;;;5079327;28;20171;-65
2023/04/10 05:09:42;;;;;;;5.10;4.60;;;7.60;99.90;;;;;;5079084;28;20182;-66
2023/04/10 05:12:10;;;;;;;5.60;4.50;;;7.70;99.90;;;;;;5079021;28;20253;-66
2023/04/10 05:14:36;;;;;;;5.60;4.40;;;7.60;99.90;;;;;;5068339;28;20238;-65
2023/04/10 05:17:01;;;;;;;5.50;4.80;;;7.60;99.90;;;;;;5058285;28;20192;-65
2023/04/10 05:19:27;;;;;;;6.07;5.23;;;7.60;99.90;;;;;;5058151;28;20267;-65
2023/04/10 05:21:52;;;;;;;7.73;5.40;;;7.60;99.90;;;;;;5058826;28;20193;-66
2023/04/10 05:24:18;;;;;;;6.83;5.50;;;7.60;99.90;;;;;;5058788;28;20173;-65
2023/04/10 05:26:43;;;;;;;7.00;5.87;;;7.70;99.90;;;;;;5058675;28;20259;-65
2023/04/10 05:29:11;;;;;;;8.70;6.27;;;7.70;99.90;;;;;;5058800;28;20172;-65
2023/04/10 05:31:37;;;;;;;7.00;5.90;;;7.70;99.90;;;;;;5058426;28;20244;-65
2023/04/10 05:34:03;;;;;;;8.93;6.53;;;7.80;99.90;;;;;;5058611;28;20229;-65
2023/04/10 05:36:28;;;;;;;8.10;6.47;;;7.90;99.90;;;;;;5058602;28;20164;-65
2023/04/10 05:38:54;;;;;;;9.60;6.57;;;7.90;99.90;;;;;;5058543;28;20172;-66
2023/04/10 05:41:20;;;;;;;8.53;6.60;;;8.00;99.90;;;;;;5058647;28;20227;-66
2023/04/10 05:43:49;;;;;;;8.27;6.90;;;8.10;99.90;;;;;;5058593;28;20232;-66
2023/04/10 05:46:17;;;;;;;8.30;6.60;;;8.10;99.90;;;;;;5058030;28;20260;-66
2023/04/10 05:48:42;;;;;;;8.80;6.60;;;8.20;99.90;;;;;;5058113;28;20203;-66
2023/04/10 05:51:08;;;;;;;6.80;5.90;;;8.40;99.90;;;;;;5058231;28;20196;-66
2023/04/10 05:53:34;;;;;;;7.27;5.93;;;8.40;99.90;;;;;;5058120;28;20196;-66
2023/04/10 05:56:00;;;;;;;8.00;6.30;;;8.50;99.90;;;;;;5058076;28;20173;-65
2023/04/10 05:58:27;;;;;;;7.10;6.00;;;8.50;99.90;;;;;;5058214;28;20200;-66
2023/04/10 06:00:57;;;;;;;8.97;6.40;;;8.60;99.90;;;;;;5057923;28;20164;-66
2023/04/10 06:03:26;;;;;;;7.13;6.07;;;8.80;99.90;;;;;;5077919;28;20192;-66
2023/04/10 06:05:52;;;;;;;7.00;5.97;;;8.90;99.90;;;;;;5094929;28;20163;-66
2023/04/10 06:08:18;;;;;;;8.23;6.60;;;9.00;99.90;;;;;;5094969;28;20202;-66
2023/04/10 06:10:47;;;;;;;7.60;6.23;;;9.10;99.90;;;;;;5094829;28;20172;-66
2023/04/10 06:13:14;;;;;;;7.40;5.80;;;9.10;99.90;;;;;;5094866;28;20217;-66
2023/04/10 06:15:39;;;;;;;8.27;6.40;;;9.20;99.90;;;;;;5078540;28;20180;-66
2023/04/10 06:18:07;;;;;;;9.73;6.27;;;9.20;99.90;;;;;;5077794;28;20190;-66
2023/04/10 06:20:33;;;;;;;6.93;5.23;;;9.30;99.90;;;;;;5077573;28;20195;-66
2023/04/10 06:22:59;;;;;;;8.30;5.83;;;9.40;99.90;;;;;;5077852;28;20210;-66
2023/04/10 06:25:25;;;;;;;6.73;5.50;;;9.30;99.90;;;;;;5077416;28;20211;-67
2023/04/10 06:27:51;;;;;;;6.70;5.83;;;9.60;99.90;;;;;;5077796;28;20176;-66
2023/04/10 06:30:19;;;;;;;8.43;6.47;;;9.50;99.90;;;;;;5077690;28;20341;-66
2023/04/10 06:32:45;;;;;;;8.40;6.43;;;9.60;99.90;;;;;;5077931;28;20199;-66
2023/04/10 06:35:13;;;;;;;7.80;6.50;;;9.70;99.90;;;;;;5077863;28;20192;-66
2023/04/10 06:37:38;;;;;;;9.50;6.77;;;9.70;99.90;;;;;;5077697;28;20164;-66
2023/04/10 06:40:09;;;;;;;8.20;6.50;;;9.80;99.90;;;;;;5077905;28;20503;-66
2023/04/10 06:42:38;;;;;;;8.70;7.07;;;9.80;99.90;;;;;;5077815;28;20174;-66
2023/04/10 06:45:06;;;;;;;8.30;6.63;;;9.90;99.90;;;;;;5077687;28;20227;-66
2023/04/10 06:47:31;;;;;;;8.23;6.78;;;10.00;99.90;;;;;;5111404;28;20176;-65
2023/04/10 06:49:57;;;;;;;8.33;6.60;;;10.10;99.90;;;;;;5111266;28;20191;-66
2023/04/10 06:52:25;;;;;;;8.27;6.77;;;10.10;99.90;;;;;;5111589;28;20210;-66
2023/04/10 06:54:51;;;;;;;8.45;6.28;;;10.20;99.90;;;;;;5111667;28;20178;-67
2023/04/10 06:57:17;;;;;;;6.97;5.88;;;10.30;99.90;;;;;;5112069;28;20294;-67
2023/04/10 06:59:43;;;;;;;8.30;6.32;;;10.40;99.90;;;;;;5111785;28;20168;-67
2023/04/10 07:02:09;;;;;;;6.32;5.47;;;10.40;99.90;;;;;;5112033;28;20215;-66
2023/04/10 07:04:35;;;;;;;6.85;5.50;;;10.60;99.90;;;;;;5111712;28;20214;-65
2023/04/10 07:07:04;;;;;;;7.00;5.70;;;10.60;99.90;;;;;;5111576;28;20172;-66
2023/04/10 07:09:30;;;;;;;7.55;5.97;;;10.70;99.90;;;;;;5111860;28;20175;-67
2023/04/10 07:11:58;;;;;;;7.35;6.13;;;10.80;99.90;;;;;;5111703;28;20211;-66
2023/04/10 07:14:28;;;;;;;6.63;5.82;;;10.80;99.90;;;;;;5111505;28;20314;-66
2023/04/10 07:16:54;;;;;;;6.90;5.70;;;11.00;99.90;;;;;;5111459;28;20223;-67
2023/04/10 07:19:20;;;;;;;6.57;5.28;;;11.00;99.90;;;;;;5111877;28;20245;-67
2023/04/10 07:21:49;;;;;;;8.38;5.90;;;11.10;99.90;;;;;;5111011;28;20266;-67
2023/04/10 07:24:17;;;;;;;7.43;5.88;;;11.20;99.90;;;;;;5111818;28;20180;-67
2023/04/10 07:26:43;;;;;;;7.55;5.75;;;11.30;99.90;;;;;;5111305;28;20223;-66
2023/04/10 07:29:12;;;;;;;6.80;5.90;;;11.40;99.90;;;;;;5111606;28;20172;-66
2023/04/10 07:31:41;;;;;;;6.10;5.18;;;11.50;99.90;;;;;;5111290;28;20192;-66
2023/04/10 07:34:10;;;;;;;6.30;5.40;;;11.60;99.90;;;;;;5111192;28;20168;-66
2023/04/10 07:36:35;;;;;;;6.55;5.25;;;11.70;99.90;;;;;;5111261;28;20171;-67
2023/04/10 07:39:01;;;;;;;7.05;5.85;;;11.80;99.90;;;;;;5111646;28;20198;-67
2023/04/10 07:41:29;;;;;;;6.53;5.63;;;11.90;99.90;;;;;;5112903;28;20180;-67
2023/04/10 07:43:57;;;;;;;6.70;5.60;;;11.90;99.90;;;;;;5080871;28;20172;-67
2023/04/10 07:46:26;;;;;;;6.65;5.75;;;12.10;99.90;;;;;;5081876;28;20266;-66
2023/04/10 07:48:53;;;;;;;5.88;5.20;;;12.20;99.90;;;;;;5080907;28;20225;-68
2023/04/10 07:51:19;;;;;;;6.53;5.50;;;12.30;99.90;;;;;;5080985;28;20196;-67
2023/04/10 07:53:45;;;;;;;6.07;4.97;;;12.40;99.90;;;;;;5080778;28;20188;-69
2023/04/10 07:56:18;;;;;;;5.82;5.20;;;12.40;99.90;;;;;;5114735;28;20164;-66
2023/04/10 07:58:44;;;;;;;6.70;5.38;;;12.50;99.90;;;;;;5080782;28;20210;-67
2023/04/10 08:01:09;;;;;;;5.95;5.00;;;12.60;99.90;;;;;;5080853;28;20195;-67
2023/04/10 08:03:43;;;;;;;7.00;5.63;;;12.70;99.90;;;;;;5080809;28;20203;-67
2023/04/10 08:06:12;;;;;;;6.45;5.45;;;12.70;99.90;;;;;;5080771;28;20175;-67
2023/04/10 08:08:39;;;;;;;5.97;5.28;;;12.80;99.90;;;;;;5081039;28;20196;-67
2023/04/10 08:11:20;;;;;;;5.43;4.80;;;12.90;99.90;;;;;;5080618;28;20180;-67
2023/04/10 08:13:46;;;;;;;6.10;4.93;;;12.90;99.90;;;;;;5080645;28;20253;-67
2023/04/10 08:16:14;;;;;;;6.20;4.93;;;12.90;99.90;;;;;;5080891;28;20164;-66
2023/04/10 08:18:40;;;;;;;6.05;5.03;;;13.00;99.90;;;;;;5080629;28;20172;-67
2023/04/10 08:21:08;;;;;;;4.95;4.05;;;13.00;99.90;;;;;;5080638;28;20193;-67
2023/04/10 08:23:35;;;;;;;6.07;4.90;;;13.10;99.90;;;;;;5080754;28;20223;-65
2023/04/10 08:26:01;;;;;;;5.50;4.63;;;13.10;99.90;;;;;;5080290;28;20226;-67
2023/04/10 08:28:31;;;;;;;5.75;4.63;;;13.20;99.90;;;;;;5080119;28;20175;-67
2023/04/10 08:30:57;;;;;;;5.30;4.40;;;13.30;99.90;;;;;;5080493;28;20164;-67
2023/04/10 08:33:22;;;;;;;5.00;4.30;;;13.30;99.90;;;;;;5080368;28;20259;-68
2023/04/10 08:35:48;;;;;;;5.03;4.43;;;13.40;99.90;;;;;;5080399;28;20194;-68
2023/04/10 08:38:16;;;;;;;4.57;4.10;;;13.50;99.90;;;;;;5080515;28;20164;-67
2023/04/10 08:40:43;;;;;;;4.85;4.18;;;13.60;99.90;;;;;;5079728;28;20196;-66
2023/04/10 08:43:11;;;;;;;6.03;4.85;;;13.70;99.90;;;;;;5080232;28;20198;-66
2023/04/10 08:45:39;;;;;;;5.13;4.25;;;13.80;99.90;;;;;;5080032;28;20204;-69
2023/04/10 08:48:06;;;;;;;5.18;4.68;;;14.00;99.90;;;;;;5079717;28;20225;-67
2023/04/10 08:50:35;;;;;;;5.85;4.88;;;14.10;99.90;;;;;;5080064;28;20202;-67
2023/04/10 08:53:09;;;;;;;7.28;4.90;;;14.10;99.90;;;;;;5095383;28;20200;-68
2023/04/10 08:55:36;;;;;;;5.25;4.75;;;14.30;99.90;;;;;;5096971;28;20255;-67
2023/04/10 08:58:03;;;;;;;4.97;4.47;;;14.30;99.90;;;;;;5096772;28;20172;-66
2023/04/10 09:00:33;;;;;;;4.72;4.22;;;14.40;99.90;;;;;;5096622;28;20179;-67
2023/04/10 09:02:59;;;;;;;5.00;4.43;;;14.40;99.90;;;;;;5092464;28;20183;-66
2023/04/10 09:05:29;;;;;;;5.00;3.97;;;14.50;99.90;;;;;;5079728;28;20168;-66
2023/04/10 09:07:54;;;;;;;4.53;4.00;;;14.60;99.90;;;;;;5113609;28;20167;-67
2023/04/10 09:10:20;;;;;;;5.47;4.97;;;14.70;99.90;;;;;;5079674;28;20182;-67
2023/04/10 09:12:47;;;;;;;5.97;5.03;;;14.70;99.90;;;;;;5078915;28;20214;-67
2023/04/10 09:15:15;;;;;;;5.72;4.75;;;14.80;99.90;;;;;;5079220;28;20164;-67
2023/04/10 09:18:02;;;;;;;5.43;4.50;;;14.90;99.90;;;;;;5079718;28;20203;-66
2023/04/10 09:20:30;;;;;;;4.97;4.00;;;14.90;99.90;;;;;;5079503;28;20247;-66
2023/04/10 09:22:56;;;;;;;5.07;4.47;;;14.90;99.90;;;;;;5075887;28;20271;-66
2023/04/10 09:25:40;;;;;;;5.35;4.57;;;15.00;99.90;;;;;;5092439;28;20216;-68
2023/04/10 09:28:07;;;;;;;5.15;4.63;;;15.10;99.90;;;;;;5092848;28;20249;-68
2023/04/10 09:30:42;;;;;;;7.03;4.70;;;15.20;99.90;;;;;;5076508;28;20165;-66
2023/04/10 09:33:23;;;;;;;5.75;5.10;;;15.20;99.90;;;;;;5098542;28;20242;-67
2023/04/10 09:35:49;;;;;;;4.80;4.30;;;15.30;99.90;;;;;;5078867;28;20258;-66
2023/04/10 09:38:19;;;;;;;4.55;3.90;;;15.40;99.90;;;;;;5078606;28;20329;-66
2023/04/10 09:40:46;;;;;;;5.65;4.72;;;15.50;99.90;;;;;;5079107;28;20160;-66
2023/04/10 09:43:24;;;;;;;5.22;4.68;;;15.50;99.90;;;;;;5079128;28;20223;-67
2023/04/10 09:45:56;;;;;;;6.05;4.85;;;15.60;99.90;;;;;;5096726;28;20160;-68
2023/04/10 09:48:25;;;;;;;5.22;4.72;;;15.70;99.90;;;;;;5078508;28;20219;-67
2023/04/10 09:50:54;;;;;;;4.85;4.30;;;15.70;99.90;;;;;;5078673;28;20180;-68
2023/04/10 09:53:22;;;;;;;5.10;4.47;;;15.70;99.90;;;;;;5078418;28;20191;-67
2023/04/10 09:55:49;;;;;;;4.60;4.10;;;15.80;99.90;;;;;;5078228;28;20191;-68
2023/04/10 09:58:16;;;;;;;4.82;4.32;;;15.80;99.90;;;;;;5078559;28;20191;-67
2023/04/10 10:00:46;;;;;;;5.35;4.75;;;15.90;99.90;;;;;;5059030;28;20200;-67
2023/04/10 10:03:16;;;;;;;4.93;4.18;;;16.10;99.90;;;;;;5058292;28;20923;-67
2023/04/10 10:05:53;;;;;;;3.90;3.35;;;16.30;99.90;;;;;;5058089;28;20264;-65
2023/04/10 10:08:19;;;;;;;4.18;3.60;;;16.50;99.90;;;;;;5058507;28;20211;-66
2023/04/10 10:10:55;;;;;;;4.50;3.78;;;16.80;99.90;;;;;;5058603;28;20180;-68
2023/04/10 10:13:37;;;;;;;4.18;3.78;;;17.00;99.90;;;;;;5058239;28;20172;-67
2023/04/10 10:16:11;;;;;;;5.00;4.47;;;17.20;99.90;;;;;;5058427;28;20172;-68
2023/04/10 10:18:46;;;;;;;4.43;3.95;;;17.40;99.90;;;;;;5058304;28;20236;-67
2023/04/10 10:21:18;;;;;;;3.80;3.40;;;17.60;99.90;;;;;;5058643;28;20291;-67
2023/04/10 10:23:46;;;;;;;4.10;3.67;;;17.70;99.90;;;;;;5058102;28;20169;-68
2023/04/10 10:26:15;;;;;;;3.83;3.42;;;17.90;99.90;;;;;;5068691;28;20199;-67
2023/04/10 10:28:41;;;;;;;4.20;3.60;;;18.10;99.90;;;;;;5077282;28;20222;-67
2023/04/10 10:31:07;;;;;;;3.97;3.47;;;18.20;99.90;;;;;;5057759;28;20180;-66
2023/04/10 10:33:38;;;;;;;3.72;3.20;;;18.30;99.90;;;;;;5057823;28;20173;-65
2023/04/10 10:36:07;;;;;;;3.97;3.58;;;18.50;99.90;;;;;;5057527;28;20179;-67
2023/04/10 10:38:35;;;;;;;4.18;3.55;;;18.70;99.90;;;;;;5057628;28;20259;-67
2023/04/10 10:41:11;;;;;;;3.55;3.25;;;19.00;99.90;;;;;;5057259;28;20211;-66
2023/04/10 10:44:20;;;;;;;3.00;2.63;;;19.30;99.90;;;;;;5060413;28;20180;-66
2023/04/10 10:47:31;;;;;;;3.78;3.10;;;19.50;93.10;;;;;;5076399;28;20192;-66
2023/04/10 10:50:00;;;;;;;3.10;2.80;;;19.70;99.80;;;;;;5073241;28;20203;-66
2023/04/10 10:52:48;;;;;;;2.75;2.53;;;19.90;99.90;;;;;;5077449;28;20191;-68
2023/04/10 10:55:26;;;;;;;2.90;2.60;;;20.00;98.20;;;;;;5071839;28;20173;-67
2023/04/10 10:57:53;;;;;;;3.50;3.20;;;20.10;99.30;;;;;;5074007;28;20244;-66
2023/04/10 11:00:24;;;;;;;3.63;3.20;;;20.10;99.90;;;;;;5057360;28;20167;-66
2023/04/10 11:03:08;;;;;;;3.05;2.60;;;20.20;97.10;;;;;;5057399;28;20168;-68
2023/04/10 11:05:55;;;;;;;2.88;2.55;;;20.20;94.90;;;;;;5074042;28;20180;-66
2023/04/10 11:08:36;;;;;;;3.28;2.70;;;20.30;93.40;;;;;;5074119;28;20263;-66
2023/04/10 11:11:50;;;;;;;3.50;2.80;;;20.20;93.00;;;;;;5074089;28;20200;-66
2023/04/10 11:14:18;;;;;;;2.95;2.63;;;20.20;91.20;;;;;;5050770;28;20188;-66
2023/04/10 11:16:49;;;;;;;3.20;2.90;;;20.20;99.90;;;;;;5059318;28;20202;-67
2023/04/10 11:19:16;;;;;;;3.47;2.88;;;20.10;97.20;;;;;;5080608;28;20174;-67
2023/04/10 11:22:06;;;;;;;3.10;2.42;;;20.10;98.40;;;;;;5077624;28;20203;-66
2023/04/10 11:25:09;;;;;;;3.10;2.60;;;20.10;97.40;;;;;;5060580;28;20164;-68
2023/04/10 11:27:39;;;;;;;2.55;2.35;;;20.10;97.50;;;;;;5039734;28;20285;-67
2023/04/10 11:30:24;;;;;;;2.63;2.35;;;20.10;98.10;;;;;;5057018;28;20185;-67
2023/04/10 11:32:52;;;;;;;2.55;2.35;;;20.10;96.50;;;;;;5060494;28;20212;-67
2023/04/10 11:35:19;;;;;;;2.53;2.22;;;20.10;98.80;;;;;;5060787;28;20179;-67
2023/04/10 11:37:47;;;;;;;2.17;1.98;;;20.10;97.90;;;;;;5060663;28;20283;-67
2023/04/10 11:40:13;;;;;;;3.20;2.90;;;20.10;97.90;;;;;;5066485;28;20168;-68
2023/04/10 11:42:38;;;;;;;3.53;2.30;;;20.10;97.70;;;;;;5080547;28;20203;-67
2023/04/10 11:45:29;;;;;;;1.95;1.77;;;20.10;98.60;;;;;;5080659;28;20206;-67
2023/04/10 11:47:55;;;;;;;1.67;1.58;;;20.10;92.10;;;;;;5093996;28;20201;-68
2023/04/10 11:50:21;;;;;;;2.60;2.10;;;20.00;95.20;;;;;;5060647;28;20203;-67
2023/04/10 11:52:50;;;;;;;2.67;2.15;;;20.00;95.00;;;;;;5060361;28;20228;-67
2023/04/10 11:55:16;;;;;;;1.98;1.77;;;19.90;93.30;;;;;;5060246;28;20188;-67
2023/04/10 11:57:44;;;;;;;1.83;1.73;;;19.90;93.30;;;;;;5060146;28;20238;-68
2023/04/10 12:00:13;;;;;;;1.85;1.70;;;19.80;90.00;;;;;;5060324;28;20200;-67
2023/04/10 12:02:50;;;;;;;1.70;1.58;;;19.80;92.60;;;;;;5060266;28;20180;-66
2023/04/10 12:05:21;;;;;;;2.00;1.80;;;19.70;83.60;;;;;;5060246;28;20207;-67
2023/04/10 12:07:49;;;;;;;1.80;1.55;;;19.60;90.70;;;;;;5059809;28;20173;-67
2023/04/10 12:10:14;;;;;;;1.65;1.52;;;19.60;90.50;;;;;;5060185;28;20259;-67
2023/04/10 12:12:40;;;;;;;2.00;1.70;;;19.50;93.50;;;;;;5060072;28;20291;-67
2023/04/10 12:15:28;;;;;;;2.00;1.77;;;19.50;92.80;;;;;;5076213;28;20227;-67
2023/04/10 12:17:55;;;;;;;2.00;1.80;;;19.50;90.50;;;;;;5080139;28;20172;-67
2023/04/10 12:20:26;;;;;;;1.90;1.70;;;19.50;91.90;;;;;;5079862;28;20192;-67
2023/04/10 12:22:55;;;;;;;1.92;1.70;;;19.50;94.30;;;;;;5076539;28;20177;-67
2023/04/10 12:25:23;;;;;;;4.57;3.33;;;19.60;93.00;;;;;;5059337;28;20211;-67
2023/04/10 12:27:54;;;;;;;4.20;2.97;;;19.70;90.80;;;;;;5059246;28;20183;-67
2023/04/10 12:30:20;;;;;;;5.90;3.90;;;19.70;91.60;;;;;;5059502;28;20208;-66
2023/04/10 12:32:56;;;;;;;2.45;2.17;;;19.80;91.00;;;;;;5059526;28;20197;-66
2023/04/10 12:35:42;;;;;;;2.50;2.20;;;19.80;79.00;;;;;;5059227;28;20197;-67
2023/04/10 12:38:07;;;;;;;4.05;3.35;;;19.90;83.90;;;;;;5059700;28;20161;-68
2023/04/10 12:40:37;;;;;;;2.80;2.40;;;19.90;92.30;;;;;;5059646;28;20253;-67
2023/04/10 12:43:06;;;;;;;2.30;1.98;;;20.00;92.00;;;;;;5060001;28;20272;-69
2023/04/10 12:45:44;;;;;;;2.13;1.92;;;20.10;93.30;;;;;;5059057;28;20204;-68
2023/04/10 12:48:10;;;;;;;2.13;1.80;;;20.20;86.00;;;;;;5073669;28;20235;-68
2023/04/10 12:50:49;;;;;;;3.25;1.75;;;20.30;92.50;;;;;;5113550;28;20223;-68
2023/04/10 12:53:15;;;;;;;1.95;1.77;;;20.40;87.40;;;;;;5113691;28;20199;-67
2023/04/10 12:55:41;;;;;;;2.10;1.88;;;20.40;92.00;;;;;;5079498;28;20195;-68
2023/04/10 12:58:20;;;;;;;2.15;1.85;;;20.50;92.60;;;;;;5079855;28;20167;-67
2023/04/10 13:00:46;;;;;;;1.85;1.60;;;20.70;90.00;;;;;;5079782;28;20200;-68
2023/04/10 13:03:12;;;;;;;2.25;1.90;;;20.90;94.10;;;;;;5079468;28;20274;-67